sensor_id;sensor_type;location;lat;lon;timestamp;pressure;altitude;pressure_sealevel;temperature;humidity
55675;BME280;41562;44.330;23.802;2023-03-18T00:01:57;100864.88;;;5.93;94.29
55675;BME280;41562;44.330;23.802;2023-03-18T00:04:26;100864.63;;;6.13;94.66
55675;BME280;41562;44.330;23.802;2023-03-18T00:06:54;100871.03;;;6.05;95.84
55675;BME280;41562;44.330;23.802;2023-03-18T00:09:28;100872.16;;;5.97;97.07
55675;BME280;41562;44.330;23.802;2023-03-18T00:12:03;100868.41;;;6.05;97.50
55675;BME280;41562;44.330;23.802;2023-03-18T00:14:35;100866.97;;;6.02;96.65
55675;BME280;41562;44.330;23.802;2023-03-18T00:17:04;100874.13;;;6.02;96.93
55675;BME280;41562;44.330;23.802;2023-03-18T00:19:32;100868.47;;;5.98;97.80
55675;BME280;41562;44.330;23.802;2023-03-18T00:22:03;100868.19;;;6.07;96.88
55675;BME280;41562;44.330;23.802;2023-03-18T00:24:34;100871.25;;;6.03;96.73
55675;BME280;41562;44.330;23.802;2023-03-18T00:27:06;100868.91;;;5.95;96.89
55675;BME280;41562;44.330;23.802;2023-03-18T00:29:35;100866.03;;;5.97;97.41
55675;BME280;41562;44.330;23.802;2023-03-18T00:32:05;100866.97;;;6.02;96.42
55675;BME280;41562;44.330;23.802;2023-03-18T00:34:33;100872.84;;;5.93;96.41
55675;BME280;41562;44.330;23.802;2023-03-18T00:37:01;100872.59;;;5.94;96.29
55675;BME280;41562;44.330;23.802;2023-03-18T00:39:31;100871.91;;;5.87;97.30
55675;BME280;41562;44.330;23.802;2023-03-18T00:41:59;100872.31;;;5.84;97.19
55675;BME280;41562;44.330;23.802;2023-03-18T00:44:26;100869.06;;;6.00;95.81
55675;BME280;41562;44.330;23.802;2023-03-18T00:46:53;100860.03;;;5.72;97.60
55675;BME280;41562;44.330;23.802;2023-03-18T00:49:21;100864.59;;;5.64;99.34
55675;BME280;41562;44.330;23.802;2023-03-18T00:51:48;100858.19;;;5.54;98.85
55675;BME280;41562;44.330;23.802;2023-03-18T00:54:16;100859.09;;;5.30;99.91
55675;BME280;41562;44.330;23.802;2023-03-18T00:56:44;100853.94;;;5.53;99.74
55675;BME280;41562;44.330;23.802;2023-03-18T00:59:12;100857.81;;;5.50;99.72
55675;BME280;41562;44.330;23.802;2023-03-18T01:01:39;100860.63;;;5.55;99.68
55675;BME280;41562;44.330;23.802;2023-03-18T01:04:07;100858.34;;;5.59;99.56
55675;BME280;41562;44.330;23.802;2023-03-18T01:06:36;100856.84;;;5.63;98.51
55675;BME280;41562;44.330;23.802;2023-03-18T01:09:06;100860.03;;;5.53;100.00
55675;BME280;41562;44.330;23.802;2023-03-18T01:11:33;100857.38;;;5.72;100.00
55675;BME280;41562;44.330;23.802;2023-03-18T01:14:01;100854.66;;;5.60;99.17
55675;BME280;41562;44.330;23.802;2023-03-18T01:16:29;100857.47;;;5.47;99.85
55675;BME280;41562;44.330;23.802;2023-03-18T01:18:57;100855.69;;;5.41;100.00
55675;BME280;41562;44.330;23.802;2023-03-18T01:21:24;100852.91;;;5.36;100.00
55675;BME280;41562;44.330;23.802;2023-03-18T01:23:51;100862.69;;;5.53;100.00
55675;BME280;41562;44.330;23.802;2023-03-18T01:26:19;100858.13;;;5.60;100.00
55675;BME280;41562;44.330;23.802;2023-03-18T01:28:46;100857.53;;;5.58;100.00
55675;BME280;41562;44.330;23.802;2023-03-18T01:31:14;100851.94;;;5.48;100.00
55675;BME280;41562;44.330;23.802;2023-03-18T01:33:41;100856.44;;;5.48;100.00
55675;BME280;41562;44.330;23.802;2023-03-18T01:36:11;100859.97;;;5.60;100.00
55675;BME280;41562;44.330;23.802;2023-03-18T01:38:39;100854.66;;;5.60;100.00
55675;BME280;41562;44.330;23.802;2023-03-18T01:41:07;100866.44;;;5.64;99.25
55675;BME280;41562;44.330;23.802;2023-03-18T01:43:36;100861.44;;;5.74;99.08
55675;BME280;41562;44.330;23.802;2023-03-18T01:48:53;100867.81;;;5.85;99.10
55675;BME280;41562;44.330;23.802;2023-03-18T01:51:21;100861.09;;;5.82;99.11
55675;BME280;41562;44.330;23.802;2023-03-18T01:53:53;100864.34;;;5.84;99.64
55675;BME280;41562;44.330;23.802;2023-03-18T01:56:22;100867.53;;;5.93;98.46
55675;BME280;41562;44.330;23.802;2023-03-18T01:58:53;100860.81;;;5.90;98.25
55675;BME280;41562;44.330;23.802;2023-03-18T02:01:31;100856.53;;;5.89;98.94
55675;BME280;41562;44.330;23.802;2023-03-18T02:04:02;100861.63;;;5.91;98.41
55675;BME280;41562;44.330;23.802;2023-03-18T02:06:30;100860.16;;;5.77;99.31
55675;BME280;41562;44.330;23.802;2023-03-18T02:08:58;100864.38;;;5.66;99.71
55675;BME280;41562;44.330;23.802;2023-03-18T02:11:25;100853.59;;;5.79;100.00
55675;BME280;41562;44.330;23.802;2023-03-18T02:13:54;100853.59;;;5.79;99.71
55675;BME280;41562;44.330;23.802;2023-03-18T02:16:28;100856.28;;;5.61;100.00
55675;BME280;41562;44.330;23.802;2023-03-18T02:19:26;100851.28;;;5.53;100.00
55675;BME280;41562;44.330;23.802;2023-03-18T02:24:58;100846.53;;;5.73;99.92
55675;BME280;41562;44.330;23.802;2023-03-18T02:27:35;100847.13;;;5.75;99.53
55675;BME280;41562;44.330;23.802;2023-03-18T02:30:12;100849.00;;;5.86;99.56
55675;BME280;41562;44.330;23.802;2023-03-18T02:32:40;100850.56;;;5.76;99.06
55675;BME280;41562;44.330;23.802;2023-03-18T02:35:10;100851.03;;;5.73;99.14
55675;BME280;41562;44.330;23.802;2023-03-18T02:37:37;100850.72;;;5.81;98.33
55675;BME280;41562;44.330;23.802;2023-03-18T02:40:17;100856.66;;;5.94;98.93
55675;BME280;41562;44.330;23.802;2023-03-18T02:42:46;100858.53;;;5.94;97.02
55675;BME280;41562;44.330;23.802;2023-03-18T02:46:25;100857.50;;;5.77;97.80
55675;BME280;41562;44.330;23.802;2023-03-18T02:48:35;100852.56;;;5.80;97.33
55675;BME280;41562;44.330;23.802;2023-03-18T02:51:05;100847.81;;;5.82;99.45
55675;BME280;41562;44.330;23.802;2023-03-18T02:53:33;100850.00;;;5.74;98.49
55675;BME280;41562;44.330;23.802;2023-03-18T02:56:01;100846.66;;;5.78;99.00
55675;BME280;41562;44.330;23.802;2023-03-18T02:58:28;100846.22;;;5.81;98.63
55675;BME280;41562;44.330;23.802;2023-03-18T03:00:56;100850.81;;;5.92;100.00
55675;BME280;41562;44.330;23.802;2023-03-18T03:03:24;100849.69;;;6.00;100.00
55675;BME280;41562;44.330;23.802;2023-03-18T03:05:52;100846.94;;;6.07;100.00
55675;BME280;41562;44.330;23.802;2023-03-18T03:08:20;100850.00;;;5.92;100.00
55675;BME280;41562;44.330;23.802;2023-03-18T03:10:47;100847.81;;;5.82;100.00
55675;BME280;41562;44.330;23.802;2023-03-18T03:13:15;100845.59;;;5.68;100.00
55675;BME280;41562;44.330;23.802;2023-03-18T03:15:43;100862.47;;;5.55;100.00
55675;BME280;41562;44.330;23.802;2023-03-18T03:18:11;100869.75;;;5.59;100.00
55675;BME280;41562;44.330;23.802;2023-03-18T03:20:38;100862.03;;;5.58;100.00
55675;BME280;41562;44.330;23.802;2023-03-18T03:23:08;100866.59;;;5.51;100.00
55675;BME280;41562;44.330;23.802;2023-03-18T03:25:36;100867.72;;;5.43;100.00
55675;BME280;41562;44.330;23.802;2023-03-18T03:28:05;100877.50;;;5.43;100.00
55675;BME280;41562;44.330;23.802;2023-03-18T03:30:34;100871.88;;;5.51;100.00
55675;BME280;41562;44.330;23.802;2023-03-18T03:33:02;100876.78;;;5.36;100.00
55675;BME280;41562;44.330;23.802;2023-03-18T03:35:30;100872.22;;;5.24;100.00
55675;BME280;41562;44.330;23.802;2023-03-18T03:37:58;100878.69;;;5.29;100.00
55675;BME280;41562;44.330;23.802;2023-03-18T03:40:25;100883.09;;;5.35;100.00
55675;BME280;41562;44.330;23.802;2023-03-18T03:42:52;100890.78;;;5.43;100.00
55675;BME280;41562;44.330;23.802;2023-03-18T03:45:19;100885.28;;;5.38;100.00
55675;BME280;41562;44.330;23.802;2023-03-18T03:47:47;100881.47;;;5.34;100.00
55675;BME280;41562;44.330;23.802;2023-03-18T03:50:15;100888.13;;;5.24;100.00
55675;BME280;41562;44.330;23.802;2023-03-18T03:52:44;100894.94;;;5.32;100.00
55675;BME280;41562;44.330;23.802;2023-03-18T03:55:14;100900.16;;;5.20;100.00
55675;BME280;41562;44.330;23.802;2023-03-18T03:57:42;100893.72;;;5.35;100.00
55675;BME280;41562;44.330;23.802;2023-03-18T04:00:14;100895.19;;;5.31;100.00
55675;BME280;41562;44.330;23.802;2023-03-18T04:02:46;100889.56;;;5.20;100.00
55675;BME280;41562;44.330;23.802;2023-03-18T04:05:15;100891.66;;;5.18;100.00
55675;BME280;41562;44.330;23.802;2023-03-18T04:07:43;100895.31;;;5.17;100.00
55675;BME280;41562;44.330;23.802;2023-03-18T04:10:16;100890.03;;;5.17;100.00
55675;BME280;41562;44.330;23.802;2023-03-18T04:12:43;100897.09;;;5.23;100.00
55675;BME280;41562;44.330;23.802;2023-03-18T04:15:13;100900.78;;;5.22;100.00
55675;BME280;41562;44.330;23.802;2023-03-18T04:17:41;100898.25;;;5.28;100.00
55675;BME280;41562;44.330;23.802;2023-03-18T04:20:09;100898.88;;;5.30;100.00
55675;BME280;41562;44.330;23.802;2023-03-18T04:22:37;100904.78;;;5.50;100.00
55675;BME280;41562;44.330;23.802;2023-03-18T04:25:05;100907.38;;;5.32;100.00
55675;BME280;41562;44.330;23.802;2023-03-18T04:27:32;100902.03;;;5.38;100.00
55675;BME280;41562;44.330;23.802;2023-03-18T04:30:00;100906.88;;;5.23;100.00
55675;BME280;41562;44.330;23.802;2023-03-18T04:32:28;100904.44;;;5.21;100.00
55675;BME280;41562;44.330;23.802;2023-03-18T04:34:56;100908.06;;;5.45;100.00
55675;BME280;41562;44.330;23.802;2023-03-18T04:37:24;100908.56;;;5.17;100.00
55675;BME280;41562;44.330;23.802;2023-03-18T04:39:52;100904.31;;;5.35;100.00
55675;BME280;41562;44.330;23.802;2023-03-18T04:42:21;100905.19;;;5.29;100.00
55675;BME280;41562;44.330;23.802;2023-03-18T04:44:49;100900.50;;;5.31;100.00
55675;BME280;41562;44.330;23.802;2023-03-18T04:47:16;100914.53;;;5.31;100.00
55675;BME280;41562;44.330;23.802;2023-03-18T04:49:44;100918.59;;;5.34;100.00
55675;BME280;41562;44.330;23.802;2023-03-18T04:52:12;100917.72;;;5.40;100.00
55675;BME280;41562;44.330;23.802;2023-03-18T04:54:40;100919.63;;;5.33;100.00
55675;BME280;41562;44.330;23.802;2023-03-18T04:57:08;100928.47;;;5.45;100.00
55675;BME280;41562;44.330;23.802;2023-03-18T04:59:35;100937.00;;;5.29;100.00
55675;BME280;41562;44.330;23.802;2023-03-18T05:02:03;100927.88;;;5.24;100.00
55675;BME280;41562;44.330;23.802;2023-03-18T05:04:30;100930.31;;;8.88;91.80
55675;BME280;41562;44.330;23.802;2023-03-18T05:06:58;100936.84;;;8.81;85.20
55675;BME280;41562;44.330;23.802;2023-03-18T05:09:25;100943.69;;;7.05;93.29
55675;BME280;41562;44.330;23.802;2023-03-18T05:11:53;100941.69;;;6.77;94.13
55675;BME280;41562;44.330;23.802;2023-03-18T05:14:21;100940.53;;;6.14;97.73
55675;BME280;41562;44.330;23.802;2023-03-18T05:16:48;100957.38;;;5.53;100.00
55675;BME280;41562;44.330;23.802;2023-03-18T05:19:16;100959.66;;;5.49;100.00
55675;BME280;41562;44.330;23.802;2023-03-18T05:21:43;100953.94;;;6.78;96.73
55675;BME280;41562;44.330;23.802;2023-03-18T05:24:11;100959.75;;;6.87;90.24
55675;BME280;41562;44.330;23.802;2023-03-18T05:26:39;100965.28;;;7.09;87.99
55675;BME280;41562;44.330;23.802;2023-03-18T05:29:06;100964.47;;;5.95;90.53
55675;BME280;41562;44.330;23.802;2023-03-18T05:31:33;100965.78;;;6.64;93.42
55675;BME280;41562;44.330;23.802;2023-03-18T05:34:01;100965.22;;;8.42;83.96
55675;BME280;41562;44.330;23.802;2023-03-18T05:36:29;100970.38;;;6.87;88.66
55675;BME280;41562;44.330;23.802;2023-03-18T05:38:56;100974.06;;;5.96;89.55
55675;BME280;41562;44.330;23.802;2023-03-18T05:41:23;100980.47;;;5.46;91.09
55675;BME280;41562;44.330;23.802;2023-03-18T05:43:55;100981.84;;;5.12;92.23
55675;BME280;41562;44.330;23.802;2023-03-18T05:46:22;100976.75;;;5.10;96.37
55675;BME280;41562;44.330;23.802;2023-03-18T05:48:50;100977.91;;;4.90;96.24
55675;BME280;41562;44.330;23.802;2023-03-18T05:51:17;100982.41;;;4.89;93.74
55675;BME280;41562;44.330;23.802;2023-03-18T05:53:45;100990.09;;;4.66;96.64
55675;BME280;41562;44.330;23.802;2023-03-18T05:56:13;100989.47;;;4.70;98.42
55675;BME280;41562;44.330;23.802;2023-03-18T05:58:40;100983.72;;;4.42;100.00
55675;BME280;41562;44.330;23.802;2023-03-18T06:01:07;100989.00;;;4.49;99.78
55675;BME280;41562;44.330;23.802;2023-03-18T06:03:35;100979.88;;;4.69;99.13
55675;BME280;41562;44.330;23.802;2023-03-18T06:06:04;101000.59;;;4.48;93.62
55675;BME280;41562;44.330;23.802;2023-03-18T06:08:31;100989.75;;;4.56;95.39
55675;BME280;41562;44.330;23.802;2023-03-18T06:10:59;100997.03;;;4.67;93.63
55675;BME280;41562;44.330;23.802;2023-03-18T06:13:30;101002.22;;;4.49;91.95
55675;BME280;41562;44.330;23.802;2023-03-18T06:16:02;101001.59;;;4.53;92.73
55675;BME280;41562;44.330;23.802;2023-03-18T06:18:30;101003.75;;;4.63;91.14
55675;BME280;41562;44.330;23.802;2023-03-18T06:20:58;101008.81;;;4.71;91.45
55675;BME280;41562;44.330;23.802;2023-03-18T06:23:26;101007.19;;;4.70;90.74
55675;BME280;41562;44.330;23.802;2023-03-18T06:25:54;101012.91;;;4.67;92.34
55675;BME280;41562;44.330;23.802;2023-03-18T06:28:21;101009.78;;;4.76;91.10
55675;BME280;41562;44.330;23.802;2023-03-18T06:30:49;101019.00;;;4.74;88.51
55675;BME280;41562;44.330;23.802;2023-03-18T06:33:16;101015.97;;;4.64;87.92
55675;BME280;41562;44.330;23.802;2023-03-18T06:35:43;101022.63;;;4.79;87.20
55675;BME280;41562;44.330;23.802;2023-03-18T06:38:11;101023.63;;;5.10;91.30
55675;BME280;41562;44.330;23.802;2023-03-18T06:40:39;101024.34;;;5.23;86.12
55675;BME280;41562;44.330;23.802;2023-03-18T06:43:06;101023.84;;;5.33;86.70
55675;BME280;41562;44.330;23.802;2023-03-18T06:45:33;101031.28;;;5.24;89.72
55675;BME280;41562;44.330;23.802;2023-03-18T06:48:01;101026.13;;;5.30;87.70
55675;BME280;41562;44.330;23.802;2023-03-18T06:50:29;101018.69;;;5.13;87.47
55675;BME280;41562;44.330;23.802;2023-03-18T06:52:58;101028.41;;;4.95;86.73
55675;BME280;41562;44.330;23.802;2023-03-18T06:55:25;101026.41;;;4.90;85.74
55675;BME280;41562;44.330;23.802;2023-03-18T06:57:53;101026.22;;;5.16;89.39
55675;BME280;41562;44.330;23.802;2023-03-18T07:00:21;101033.22;;;5.36;86.45
55675;BME280;41562;44.330;23.802;2023-03-18T07:02:51;101036.44;;;6.24;82.95
55675;BME280;41562;44.330;23.802;2023-03-18T07:05:18;101039.94;;;5.81;82.36
55675;BME280;41562;44.330;23.802;2023-03-18T07:07:46;101037.13;;;5.76;83.29
55675;BME280;41562;44.330;23.802;2023-03-18T07:10:20;101039.25;;;5.68;84.08
55675;BME280;41562;44.330;23.802;2023-03-18T07:12:48;101035.22;;;5.83;82.04
55675;BME280;41562;44.330;23.802;2023-03-18T07:15:17;101041.53;;;5.39;82.72
55675;BME280;41562;44.330;23.802;2023-03-18T07:17:45;101037.59;;;5.48;87.40
55675;BME280;41562;44.330;23.802;2023-03-18T07:20:13;101045.25;;;5.56;82.14
55675;BME280;41562;44.330;23.802;2023-03-18T07:22:43;101049.66;;;5.19;82.88
55675;BME280;41562;44.330;23.802;2023-03-18T07:25:12;101046.19;;;5.19;84.62
55675;BME280;41562;44.330;23.802;2023-03-18T07:27:40;101056.72;;;6.36;83.48
55675;BME280;41562;44.330;23.802;2023-03-18T07:30:08;101056.66;;;6.07;79.81
55675;BME280;41562;44.330;23.802;2023-03-18T07:32:36;101054.34;;;6.28;79.39
55675;BME280;41562;44.330;23.802;2023-03-18T07:35:05;101070.59;;;6.98;77.99
55675;BME280;41562;44.330;23.802;2023-03-18T07:37:32;101066.06;;;6.57;80.42
55675;BME280;41562;44.330;23.802;2023-03-18T07:39:59;101061.94;;;6.43;79.84
55675;BME280;41562;44.330;23.802;2023-03-18T07:42:27;101055.41;;;5.84;79.68
55675;BME280;41562;44.330;23.802;2023-03-18T07:44:54;101062.09;;;6.12;80.95
55675;BME280;41562;44.330;23.802;2023-03-18T07:47:22;101066.31;;;6.37;83.05
55675;BME280;41562;44.330;23.802;2023-03-18T07:49:49;101078.03;;;6.12;79.22
55675;BME280;41562;44.330;23.802;2023-03-18T07:52:17;101077.97;;;5.75;79.74
55675;BME280;41562;44.330;23.802;2023-03-18T07:54:45;101071.66;;;5.70;79.93
55675;BME280;41562;44.330;23.802;2023-03-18T07:57:13;101076.03;;;5.82;81.45
55675;BME280;41562;44.330;23.802;2023-03-18T07:59:41;101071.50;;;5.89;80.39
55675;BME280;41562;44.330;23.802;2023-03-18T08:02:13;101080.53;;;5.82;78.37
55675;BME280;41562;44.330;23.802;2023-03-18T08:04:41;101082.06;;;5.71;79.29
55675;BME280;41562;44.330;23.802;2023-03-18T08:07:09;101083.75;;;5.90;80.75
55675;BME280;41562;44.330;23.802;2023-03-18T08:09:36;101087.16;;;5.73;81.69
55675;BME280;41562;44.330;23.802;2023-03-18T08:12:04;101081.31;;;5.64;82.05
55675;BME280;41562;44.330;23.802;2023-03-18T08:14:31;101074.22;;;5.58;82.72
55675;BME280;41562;44.330;23.802;2023-03-18T08:16:59;101080.75;;;5.62;80.85
55675;BME280;41562;44.330;23.802;2023-03-18T08:19:26;101077.06;;;5.88;80.92
55675;BME280;41562;44.330;23.802;2023-03-18T08:21:53;101092.03;;;5.76;79.58
55675;BME280;41562;44.330;23.802;2023-03-18T08:24:21;101086.13;;;5.74;78.03
55675;BME280;41562;44.330;23.802;2023-03-18T08:26:48;101089.75;;;5.79;79.02
55675;BME280;41562;44.330;23.802;2023-03-18T08:29:16;101095.75;;;6.18;79.45
55675;BME280;41562;44.330;23.802;2023-03-18T08:31:44;101091.38;;;6.05;76.56
55675;BME280;41562;44.330;23.802;2023-03-18T08:34:12;101101.09;;;5.93;77.53
55675;BME280;41562;44.330;23.802;2023-03-18T08:36:40;101089.69;;;6.11;77.83
55675;BME280;41562;44.330;23.802;2023-03-18T08:39:08;101100.44;;;6.34;79.04
55675;BME280;41562;44.330;23.802;2023-03-18T08:41:36;101097.66;;;6.29;76.81
55675;BME280;41562;44.330;23.802;2023-03-18T08:44:21;101104.88;;;6.40;76.56
55675;BME280;41562;44.330;23.802;2023-03-18T08:46:50;101099.56;;;6.40;76.39
55675;BME280;41562;44.330;23.802;2023-03-18T08:49:17;101113.44;;;6.90;73.61
55675;BME280;41562;44.330;23.802;2023-03-18T08:51:44;101103.25;;;6.39;73.34
55675;BME280;41562;44.330;23.802;2023-03-18T08:54:12;101107.38;;;6.53;74.58
55675;BME280;41562;44.330;23.802;2023-03-18T08:56:39;101115.63;;;6.45;75.02
55675;BME280;41562;44.330;23.802;2023-03-18T08:59:08;101110.69;;;6.67;80.84
55675;BME280;41562;44.330;23.802;2023-03-18T09:01:36;101114.59;;;8.12;74.55
55675;BME280;41562;44.330;23.802;2023-03-18T09:04:04;101111.94;;;6.64;78.96
55675;BME280;41562;44.330;23.802;2023-03-18T09:06:31;101110.56;;;6.25;81.45
55675;BME280;41562;44.330;23.802;2023-03-18T09:08:59;101114.84;;;6.44;86.09
55675;BME280;41562;44.330;23.802;2023-03-18T09:11:27;101109.69;;;6.31;84.02
55675;BME280;41562;44.330;23.802;2023-03-18T09:13:55;101108.72;;;6.26;83.47
55675;BME280;41562;44.330;23.802;2023-03-18T09:16:22;101119.63;;;6.72;82.72
55675;BME280;41562;44.330;23.802;2023-03-18T09:18:50;101107.72;;;7.05;81.15
55675;BME280;41562;44.330;23.802;2023-03-18T09:21:17;101113.53;;;7.02;79.10
55675;BME280;41562;44.330;23.802;2023-03-18T09:23:45;101110.16;;;7.59;76.26
55675;BME280;41562;44.330;23.802;2023-03-18T09:26:12;101108.13;;;7.20;76.04
55675;BME280;41562;44.330;23.802;2023-03-18T09:28:40;101101.97;;;7.73;79.62
55675;BME280;41562;44.330;23.802;2023-03-18T09:31:08;101110.31;;;7.64;77.05
55675;BME280;41562;44.330;23.802;2023-03-18T09:33:35;101105.66;;;9.10;71.30
55675;BME280;41562;44.330;23.802;2023-03-18T09:36:03;101099.00;;;8.56;71.84
55675;BME280;41562;44.330;23.802;2023-03-18T09:38:30;101096.63;;;11.03;97.57
55675;BME280;41562;44.330;23.802;2023-03-18T09:41:04;101097.97;;;14.56;77.11
55675;BME280;41562;44.330;23.802;2023-03-18T09:51:49;101085.75;;;13.03;68.23
55675;BME280;41562;44.330;23.802;2023-03-18T09:54:39;101088.28;;;12.47;62.86
55675;BME280;41562;44.330;23.802;2023-03-18T09:57:34;101087.97;;;13.32;59.45
55675;BME280;41562;44.330;23.802;2023-03-18T10:00:17;101083.00;;;12.63;58.03
55675;BME280;41562;44.330;23.802;2023-03-18T10:03:11;101082.59;;;13.32;59.33
55675;BME280;41562;44.330;23.802;2023-03-18T10:05:48;101074.09;;;11.95;63.30
55675;BME280;41562;44.330;23.802;2023-03-18T10:08:28;101080.41;;;11.15;63.27
55675;BME280;41562;44.330;23.802;2023-03-18T10:11:01;101065.59;;;11.71;57.30
55675;BME280;41562;44.330;23.802;2023-03-18T10:13:34;101056.97;;;11.64;60.83
55675;BME280;41562;44.330;23.802;2023-03-18T10:16:05;101069.31;;;10.74;59.20
55675;BME280;41562;44.330;23.802;2023-03-18T10:18:39;101066.38;;;10.49;62.14
55675;BME280;41562;44.330;23.802;2023-03-18T10:21:37;101059.41;;;11.02;60.05
55675;BME280;41562;44.330;23.802;2023-03-18T10:26:52;101060.16;;;11.93;60.04
55675;BME280;41562;44.330;23.802;2023-03-18T10:35:30;101053.16;;;11.55;57.54
55675;BME280;41562;44.330;23.802;2023-03-18T10:38:22;101048.81;;;11.81;57.00
55675;BME280;41562;44.330;23.802;2023-03-18T10:40:51;101047.47;;;11.83;57.04
55675;BME280;41562;44.330;23.802;2023-03-18T10:43:23;101044.84;;;11.19;58.72
55675;BME280;41562;44.330;23.802;2023-03-18T10:48:34;101047.88;;;11.65;65.80
55675;BME280;41562;44.330;23.802;2023-03-18T10:54:02;101046.72;;;12.45;54.00
55675;BME280;41562;44.330;23.802;2023-03-18T10:56:34;101039.00;;;12.64;52.81
55675;BME280;41562;44.330;23.802;2023-03-18T10:59:14;101040.00;;;11.85;53.59
55675;BME280;41562;44.330;23.802;2023-03-18T11:01:47;101036.13;;;12.13;54.04
55675;BME280;41562;44.330;23.802;2023-03-18T11:04:19;101027.75;;;12.97;52.02
55675;BME280;41562;44.330;23.802;2023-03-18T11:09:19;101022.53;;;12.40;62.86
55675;BME280;41562;44.330;23.802;2023-03-18T11:11:55;101018.22;;;12.29;52.36
55675;BME280;41562;44.330;23.802;2023-03-18T11:14:29;101017.47;;;11.81;53.11
55675;BME280;41562;44.330;23.802;2023-03-18T11:17:00;101018.78;;;11.79;53.33
55675;BME280;41562;44.330;23.802;2023-03-18T11:19:38;101020.53;;;12.05;54.12
55675;BME280;41562;44.330;23.802;2023-03-18T11:24:37;101030.31;;;11.10;54.09
55675;BME280;41562;44.330;23.802;2023-03-18T11:29:44;101008.13;;;11.89;62.97
55675;BME280;41562;44.330;23.802;2023-03-18T11:32:25;101004.13;;;12.64;54.77
55675;BME280;41562;44.330;23.802;2023-03-18T11:35:06;101004.66;;;12.71;53.41
55675;BME280;41562;44.330;23.802;2023-03-18T11:37:36;100998.72;;;12.59;52.49
55675;BME280;41562;44.330;23.802;2023-03-18T11:42:41;100995.22;;;12.48;53.13
55675;BME280;41562;44.330;23.802;2023-03-18T11:45:33;100987.97;;;12.59;53.92
55675;BME280;41562;44.330;23.802;2023-03-18T11:48:04;100993.31;;;12.43;53.72
55675;BME280;41562;44.330;23.802;2023-03-18T11:50:41;100987.97;;;12.48;53.13
55675;BME280;41562;44.330;23.802;2023-03-18T11:53:16;100985.56;;;12.52;51.39
55675;BME280;41562;44.330;23.802;2023-03-18T11:55:51;100976.09;;;12.19;54.58
55675;BME280;41562;44.330;23.802;2023-03-18T12:01:03;100969.75;;;12.56;55.53
55675;BME280;41562;44.330;23.802;2023-03-18T12:03:45;100978.19;;;12.07;52.23
55675;BME280;41562;44.330;23.802;2023-03-18T12:06:29;100978.19;;;11.55;48.36
55675;BME280;41562;44.330;23.802;2023-03-18T12:09:15;100966.09;;;11.10;50.78
55675;BME280;41562;44.330;23.802;2023-03-18T12:20:53;100954.72;;;12.60;48.50
55675;BME280;41562;44.330;23.802;2023-03-18T12:28:47;100949.78;;;11.54;50.07
55675;BME280;41562;44.330;23.802;2023-03-18T12:37:27;100951.63;;;10.74;52.23
55675;BME280;41562;44.330;23.802;2023-03-18T12:40:25;100960.19;;;10.76;51.17
55675;BME280;41562;44.330;23.802;2023-03-18T12:45:46;100953.69;;;10.99;50.16
55675;BME280;41562;44.330;23.802;2023-03-18T12:48:29;100947.97;;;11.22;47.75
55675;BME280;41562;44.330;23.802;2023-03-18T12:51:31;100946.66;;;11.25;46.15
55675;BME280;41562;44.330;23.802;2023-03-18T12:54:08;100950.31;;;10.50;48.84
55675;BME280;41562;44.330;23.802;2023-03-18T12:56:42;100945.91;;;10.66;47.98
55675;BME280;41562;44.330;23.802;2023-03-18T12:59:21;100944.69;;;11.10;49.06
55675;BME280;41562;44.330;23.802;2023-03-18T13:01:59;100945.06;;;11.29;47.36
55675;BME280;41562;44.330;23.802;2023-03-18T13:04:32;100952.66;;;11.42;45.79
55675;BME280;41562;44.330;23.802;2023-03-18T13:07:26;100944.72;;;11.15;46.54
55675;BME280;41562;44.330;23.802;2023-03-18T13:10:00;100941.25;;;11.20;47.01
55675;BME280;41562;44.330;23.802;2023-03-18T13:12:34;100938.16;;;11.38;45.27
55675;BME280;41562;44.330;23.802;2023-03-18T13:18:05;100936.91;;;11.09;44.90
55675;BME280;41562;44.330;23.802;2023-03-18T13:20:39;100933.50;;;11.70;47.65
55675;BME280;41562;44.330;23.802;2023-03-18T13:43:29;100932.69;;;12.37;49.78
55675;BME280;41562;44.330;23.802;2023-03-18T13:45:58;100920.34;;;12.31;49.13
55675;BME280;41562;44.330;23.802;2023-03-18T13:48:29;100923.81;;;12.22;49.18
55675;BME280;41562;44.330;23.802;2023-03-18T13:51:28;100923.03;;;12.41;49.30
55675;BME280;41562;44.330;23.802;2023-03-18T13:54:14;100922.22;;;12.41;48.08
55675;BME280;41562;44.330;23.802;2023-03-18T14:04:51;100927.31;;;11.60;50.53
55675;BME280;41562;44.330;23.802;2023-03-18T14:07:20;100926.34;;;11.29;51.26
55675;BME280;41562;44.330;23.802;2023-03-18T14:12:46;100919.44;;;11.01;49.84
55675;BME280;41562;44.330;23.802;2023-03-18T14:17:43;100918.06;;;10.94;50.22
55675;BME280;41562;44.330;23.802;2023-03-18T14:22:43;100922.84;;;10.86;50.08
55675;BME280;41562;44.330;23.802;2023-03-18T14:27:53;100916.72;;;10.59;51.42
55675;BME280;41562;44.330;23.802;2023-03-18T14:33:28;100926.38;;;10.65;52.90
55675;BME280;41562;44.330;23.802;2023-03-18T14:36:03;100926.38;;;10.65;52.70
55675;BME280;41562;44.330;23.802;2023-03-18T14:38:45;100919.78;;;10.73;52.54
55675;BME280;41562;44.330;23.802;2023-03-18T14:41:20;100921.84;;;10.66;53.06
55675;BME280;41562;44.330;23.802;2023-03-18T14:46:44;100918.56;;;10.91;52.01
55675;BME280;41562;44.330;23.802;2023-03-18T14:52:04;100913.28;;;11.01;53.28
55675;BME280;41562;44.330;23.802;2023-03-18T14:54:40;100919.75;;;11.05;51.22
55675;BME280;41562;44.330;23.802;2023-03-18T14:57:08;100914.84;;;10.92;51.93
55675;BME280;41562;44.330;23.802;2023-03-18T14:59:35;100923.44;;;10.94;49.72